Terminal Aerodrome Forecast
Issued by NWS

Home | Current Version | Previous Version | Text Only | Print | Product List | Glossary On
Versions: 1 2 3 4 5 6 7 8 9 10 11 12 13
505
FTUS42 KMLB 101722
TAFLEE
TAF
KLEE 101722Z 1018/1118 29015G22KT P6SM SKC
     FM110100 30005KT P6SM SKC
     FM111200 35004KT P6SM SKC=

USA.gov is the U.S. government's official web portal to all federal, state and local government web resources and services.